sensor_id;sensor_type;location;lat;lon;timestamp;P1;durP1;ratioP1;P2;durP2;ratioP2
70455;SDS011;57916;51.996;5.180;2022-09-09T00:09:31;4.10;;;3.80;;
70455;SDS011;57916;51.996;5.180;2022-09-09T00:12:18;4.57;;;4.18;;
70455;SDS011;57916;51.996;5.180;2022-09-09T00:15:14;5.57;;;4.30;;
70455;SDS011;57916;51.996;5.180;2022-09-09T00:17:56;4.75;;;4.32;;
70455;SDS011;57916;51.996;5.180;2022-09-09T00:23:11;4.95;;;4.55;;
70455;SDS011;57916;51.996;5.180;2022-09-09T00:28:30;5.10;;;4.60;;
70455;SDS011;57916;51.996;5.180;2022-09-09T00:31:13;4.43;;;4.13;;
70455;SDS011;57916;51.996;5.180;2022-09-09T00:33:45;5.30;;;4.10;;
70455;SDS011;57916;51.996;5.180;2022-09-09T00:36:14;5.03;;;4.60;;
70455;SDS011;57916;51.996;5.180;2022-09-09T00:38:52;5.32;;;4.93;;
70455;SDS011;57916;51.996;5.180;2022-09-09T00:59:56;4.90;;;4.38;;
70455;SDS011;57916;51.996;5.180;2022-09-09T01:11:21;4.50;;;4.10;;
70455;SDS011;57916;51.996;5.180;2022-09-09T01:14:02;5.10;;;4.70;;
70455;SDS011;57916;51.996;5.180;2022-09-09T01:16:43;4.90;;;4.50;;
70455;SDS011;57916;51.996;5.180;2022-09-09T01:19:16;5.60;;;4.95;;
70455;SDS011;57916;51.996;5.180;2022-09-09T01:22:03;5.18;;;4.65;;
70455;SDS011;57916;51.996;5.180;2022-09-09T01:27:53;8.10;;;4.78;;
70455;SDS011;57916;51.996;5.180;2022-09-09T01:30:30;6.13;;;4.90;;
70455;SDS011;57916;51.996;5.180;2022-09-09T01:32:59;5.38;;;4.88;;
70455;SDS011;57916;51.996;5.180;2022-09-09T01:37:59;4.93;;;4.63;;
70455;SDS011;57916;51.996;5.180;2022-09-09T01:40:26;4.93;;;4.63;;
70455;SDS011;57916;51.996;5.180;2022-09-09T01:42:55;5.20;;;4.90;;
70455;SDS011;57916;51.996;5.180;2022-09-09T01:45:22;5.65;;;5.25;;
70455;SDS011;57916;51.996;5.180;2022-09-09T01:47:52;4.70;;;4.43;;
70455;SDS011;57916;51.996;5.180;2022-09-09T01:50:30;5.90;;;5.50;;
70455;SDS011;57916;51.996;5.180;2022-09-09T01:52:58;5.75;;;5.32;;
70455;SDS011;57916;51.996;5.180;2022-09-09T01:55:33;6.20;;;5.10;;
70455;SDS011;57916;51.996;5.180;2022-09-09T02:03:31;5.82;;;5.30;;
70455;SDS011;57916;51.996;5.180;2022-09-09T02:06:14;6.03;;;5.72;;
70455;SDS011;57916;51.996;5.180;2022-09-09T02:08:52;6.90;;;6.20;;
70455;SDS011;57916;51.996;5.180;2022-09-09T02:11:24;7.60;;;6.90;;
70455;SDS011;57916;51.996;5.180;2022-09-09T02:16:54;6.85;;;6.25;;
70455;SDS011;57916;51.996;5.180;2022-09-09T02:19:49;8.88;;;6.55;;
70455;SDS011;57916;51.996;5.180;2022-09-09T02:22:35;7.53;;;5.80;;
70455;SDS011;57916;51.996;5.180;2022-09-09T02:25:07;6.57;;;6.00;;
70455;SDS011;57916;51.996;5.180;2022-09-09T02:27:36;7.65;;;6.40;;
70455;SDS011;57916;51.996;5.180;2022-09-09T02:30:03;7.53;;;6.80;;
70455;SDS011;57916;51.996;5.180;2022-09-09T02:32:38;10.23;;;6.15;;
70455;SDS011;57916;51.996;5.180;2022-09-09T02:35:10;8.63;;;5.93;;
70455;SDS011;57916;51.996;5.180;2022-09-09T02:37:42;8.15;;;6.30;;
70455;SDS011;57916;51.996;5.180;2022-09-09T02:40:15;7.30;;;6.60;;
70455;SDS011;57916;51.996;5.180;2022-09-09T02:42:47;6.82;;;6.22;;
70455;SDS011;57916;51.996;5.180;2022-09-09T02:45:18;7.78;;;6.43;;
70455;SDS011;57916;51.996;5.180;2022-09-09T02:47:55;7.45;;;6.40;;
70455;SDS011;57916;51.996;5.180;2022-09-09T02:51:10;8.93;;;7.40;;
70455;SDS011;57916;51.996;5.180;2022-09-09T02:54:02;6.85;;;6.25;;
70455;SDS011;57916;51.996;5.180;2022-09-09T02:56:42;8.35;;;7.38;;
70455;SDS011;57916;51.996;5.180;2022-09-09T02:59:14;8.60;;;6.90;;
70455;SDS011;57916;51.996;5.180;2022-09-09T03:01:41;7.57;;;6.53;;
70455;SDS011;57916;51.996;5.180;2022-09-09T03:04:09;7.35;;;6.68;;
70455;SDS011;57916;51.996;5.180;2022-09-09T03:06:36;7.47;;;6.70;;
70455;SDS011;57916;51.996;5.180;2022-09-09T03:09:15;7.55;;;6.93;;
70455;SDS011;57916;51.996;5.180;2022-09-09T03:11:42;9.25;;;6.70;;
70455;SDS011;57916;51.996;5.180;2022-09-09T03:14:10;7.32;;;6.50;;
70455;SDS011;57916;51.996;5.180;2022-09-09T03:16:38;7.57;;;6.93;;
70455;SDS011;57916;51.996;5.180;2022-09-09T03:19:05;8.82;;;6.90;;
70455;SDS011;57916;51.996;5.180;2022-09-09T03:21:33;7.20;;;6.60;;
70455;SDS011;57916;51.996;5.180;2022-09-09T03:24:00;12.15;;;6.25;;
70455;SDS011;57916;51.996;5.180;2022-09-09T03:26:29;8.88;;;6.93;;
70455;SDS011;57916;51.996;5.180;2022-09-09T03:28:57;7.30;;;6.65;;
70455;SDS011;57916;51.996;5.180;2022-09-09T03:31:26;7.65;;;6.45;;
70455;SDS011;57916;51.996;5.180;2022-09-09T03:33:57;7.80;;;6.70;;
70455;SDS011;57916;51.996;5.180;2022-09-09T03:36:26;7.70;;;6.88;;
70455;SDS011;57916;51.996;5.180;2022-09-09T03:38:54;9.60;;;6.80;;
70455;SDS011;57916;51.996;5.180;2022-09-09T03:41:24;10.00;;;6.10;;
70455;SDS011;57916;51.996;5.180;2022-09-09T03:43:51;8.57;;;6.90;;
70455;SDS011;57916;51.996;5.180;2022-09-09T03:46:20;9.38;;;6.60;;
70455;SDS011;57916;51.996;5.180;2022-09-09T03:48:49;7.50;;;6.82;;
70455;SDS011;57916;51.996;5.180;2022-09-09T03:51:17;8.17;;;6.40;;
70455;SDS011;57916;51.996;5.180;2022-09-09T03:53:45;9.35;;;7.25;;
70455;SDS011;57916;51.996;5.180;2022-09-09T03:56:13;8.18;;;7.38;;
70455;SDS011;57916;51.996;5.180;2022-09-09T03:58:40;11.02;;;6.43;;
70455;SDS011;57916;51.996;5.180;2022-09-09T04:01:10;8.47;;;7.13;;
70455;SDS011;57916;51.996;5.180;2022-09-09T04:03:45;9.07;;;7.10;;
70455;SDS011;57916;51.996;5.180;2022-09-09T04:06:12;8.50;;;6.80;;
70455;SDS011;57916;51.996;5.180;2022-09-09T04:08:44;10.02;;;6.57;;
70455;SDS011;57916;51.996;5.180;2022-09-09T04:11:13;8.27;;;7.00;;
70455;SDS011;57916;51.996;5.180;2022-09-09T04:13:41;7.32;;;6.65;;
70455;SDS011;57916;51.996;5.180;2022-09-09T04:16:11;8.13;;;6.83;;
70455;SDS011;57916;51.996;5.180;2022-09-09T04:18:42;6.90;;;6.40;;
70455;SDS011;57916;51.996;5.180;2022-09-09T04:21:10;8.32;;;7.10;;
70455;SDS011;57916;51.996;5.180;2022-09-09T04:23:39;8.27;;;7.30;;
70455;SDS011;57916;51.996;5.180;2022-09-09T04:26:07;8.35;;;7.47;;
70455;SDS011;57916;51.996;5.180;2022-09-09T04:28:36;11.15;;;6.55;;
70455;SDS011;57916;51.996;5.180;2022-09-09T04:31:14;7.03;;;6.38;;
70455;SDS011;57916;51.996;5.180;2022-09-09T04:33:48;9.53;;;6.40;;
70455;SDS011;57916;51.996;5.180;2022-09-09T04:36:16;7.38;;;6.60;;
70455;SDS011;57916;51.996;5.180;2022-09-09T04:38:49;9.77;;;6.80;;
70455;SDS011;57916;51.996;5.180;2022-09-09T04:41:16;7.38;;;6.53;;
70455;SDS011;57916;51.996;5.180;2022-09-09T04:43:46;11.07;;;5.80;;
70455;SDS011;57916;51.996;5.180;2022-09-09T04:46:14;9.95;;;6.80;;
70455;SDS011;57916;51.996;5.180;2022-09-09T04:48:43;7.75;;;6.75;;
70455;SDS011;57916;51.996;5.180;2022-09-09T04:51:12;9.52;;;7.07;;
70455;SDS011;57916;51.996;5.180;2022-09-09T04:53:41;7.07;;;6.47;;
70455;SDS011;57916;51.996;5.180;2022-09-09T04:56:11;8.10;;;6.20;;
70455;SDS011;57916;51.996;5.180;2022-09-09T04:58:49;10.88;;;6.30;;
70455;SDS011;57916;51.996;5.180;2022-09-09T05:01:20;8.05;;;7.03;;
70455;SDS011;57916;51.996;5.180;2022-09-09T05:03:50;9.73;;;7.20;;
70455;SDS011;57916;51.996;5.180;2022-09-09T05:06:21;8.05;;;7.43;;
70455;SDS011;57916;51.996;5.180;2022-09-09T05:08:53;9.20;;;7.90;;
70455;SDS011;57916;51.996;5.180;2022-09-09T05:11:26;8.95;;;8.00;;
70455;SDS011;57916;51.996;5.180;2022-09-09T05:13:59;10.00;;;8.10;;
70455;SDS011;57916;51.996;5.180;2022-09-09T05:16:28;8.13;;;7.40;;
70455;SDS011;57916;51.996;5.180;2022-09-09T05:18:55;12.70;;;7.78;;
70455;SDS011;57916;51.996;5.180;2022-09-09T05:21:24;8.77;;;7.43;;
70455;SDS011;57916;51.996;5.180;2022-09-09T05:23:52;10.70;;;7.47;;
70455;SDS011;57916;51.996;5.180;2022-09-09T05:26:20;11.88;;;7.60;;
70455;SDS011;57916;51.996;5.180;2022-09-09T05:28:50;10.85;;;6.80;;
70455;SDS011;57916;51.996;5.180;2022-09-09T05:31:18;7.80;;;7.18;;
70455;SDS011;57916;51.996;5.180;2022-09-09T05:33:49;7.70;;;7.00;;
70455;SDS011;57916;51.996;5.180;2022-09-09T05:36:19;10.07;;;6.90;;
70455;SDS011;57916;51.996;5.180;2022-09-09T05:38:51;9.18;;;6.60;;
70455;SDS011;57916;51.996;5.180;2022-09-09T05:41:23;14.95;;;6.38;;
70455;SDS011;57916;51.996;5.180;2022-09-09T05:43:53;13.80;;;5.50;;
70455;SDS011;57916;51.996;5.180;2022-09-09T05:46:22;5.72;;;5.00;;
70455;SDS011;57916;51.996;5.180;2022-09-09T05:48:52;12.35;;;5.13;;
70455;SDS011;57916;51.996;5.180;2022-09-09T05:51:26;8.80;;;4.70;;
70455;SDS011;57916;51.996;5.180;2022-09-09T05:53:57;10.45;;;4.68;;
70455;SDS011;57916;51.996;5.180;2022-09-09T05:56:27;6.93;;;4.32;;
70455;SDS011;57916;51.996;5.180;2022-09-09T05:58:57;8.63;;;4.13;;
70455;SDS011;57916;51.996;5.180;2022-09-09T06:01:33;6.65;;;4.40;;
70455;SDS011;57916;51.996;5.180;2022-09-09T06:04:02;10.95;;;5.20;;
70455;SDS011;57916;51.996;5.180;2022-09-09T06:06:31;10.77;;;5.60;;
70455;SDS011;57916;51.996;5.180;2022-09-09T06:09:07;8.63;;;5.10;;
70455;SDS011;57916;51.996;5.180;2022-09-09T06:11:38;7.30;;;4.15;;
70455;SDS011;57916;51.996;5.180;2022-09-09T06:14:06;7.50;;;3.40;;
70455;SDS011;57916;51.996;5.180;2022-09-09T06:16:34;5.38;;;3.80;;
70455;SDS011;57916;51.996;5.180;2022-09-09T06:19:08;9.10;;;4.53;;
70455;SDS011;57916;51.996;5.180;2022-09-09T06:21:36;8.10;;;4.45;;
70455;SDS011;57916;51.996;5.180;2022-09-09T06:24:06;8.82;;;5.20;;
70455;SDS011;57916;51.996;5.180;2022-09-09T06:26:38;11.27;;;4.93;;
70455;SDS011;57916;51.996;5.180;2022-09-09T06:29:15;7.65;;;5.50;;
70455;SDS011;57916;51.996;5.180;2022-09-09T06:31:42;9.40;;;5.43;;
70455;SDS011;57916;51.996;5.180;2022-09-09T06:34:14;8.35;;;5.60;;
70455;SDS011;57916;51.996;5.180;2022-09-09T06:36:45;8.38;;;5.43;;
70455;SDS011;57916;51.996;5.180;2022-09-09T06:39:12;8.10;;;5.30;;
70455;SDS011;57916;51.996;5.180;2022-09-09T06:41:42;8.53;;;4.50;;
70455;SDS011;57916;51.996;5.180;2022-09-09T06:44:27;9.63;;;4.95;;
70455;SDS011;57916;51.996;5.180;2022-09-09T06:47:00;9.85;;;3.53;;
70455;SDS011;57916;51.996;5.180;2022-09-09T06:49:28;8.65;;;3.40;;
70455;SDS011;57916;51.996;5.180;2022-09-09T06:51:55;7.75;;;2.85;;
70455;SDS011;57916;51.996;5.180;2022-09-09T06:54:22;5.20;;;2.90;;
70455;SDS011;57916;51.996;5.180;2022-09-09T06:56:51;7.93;;;2.80;;
70455;SDS011;57916;51.996;5.180;2022-09-09T06:59:22;5.57;;;3.20;;
70455;SDS011;57916;51.996;5.180;2022-09-09T07:01:51;7.82;;;3.70;;
70455;SDS011;57916;51.996;5.180;2022-09-09T07:04:22;10.98;;;4.00;;
70455;SDS011;57916;51.996;5.180;2022-09-09T07:06:49;10.07;;;3.47;;
70455;SDS011;57916;51.996;5.180;2022-09-09T07:09:22;8.23;;;3.40;;
70455;SDS011;57916;51.996;5.180;2022-09-09T07:11:51;7.35;;;3.00;;
70455;SDS011;57916;51.996;5.180;2022-09-09T07:14:24;8.45;;;3.10;;
70455;SDS011;57916;51.996;5.180;2022-09-09T07:16:57;12.98;;;3.00;;
70455;SDS011;57916;51.996;5.180;2022-09-09T07:19:27;9.88;;;3.20;;
70455;SDS011;57916;51.996;5.180;2022-09-09T07:21:55;10.43;;;2.97;;
70455;SDS011;57916;51.996;5.180;2022-09-09T07:24:23;7.60;;;3.08;;
70455;SDS011;57916;51.996;5.180;2022-09-09T07:26:50;12.18;;;3.80;;
70455;SDS011;57916;51.996;5.180;2022-09-09T07:29:19;5.47;;;3.60;;
70455;SDS011;57916;51.996;5.180;2022-09-09T07:31:47;7.85;;;3.70;;
70455;SDS011;57916;51.996;5.180;2022-09-09T07:34:19;7.93;;;3.60;;
70455;SDS011;57916;51.996;5.180;2022-09-09T07:36:47;10.13;;;3.78;;
70455;SDS011;57916;51.996;5.180;2022-09-09T07:39:16;12.43;;;3.83;;
70455;SDS011;57916;51.996;5.180;2022-09-09T07:41:50;9.93;;;3.90;;
70455;SDS011;57916;51.996;5.180;2022-09-09T07:44:21;7.47;;;3.50;;
70455;SDS011;57916;51.996;5.180;2022-09-09T07:46:58;8.97;;;3.90;;
70455;SDS011;57916;51.996;5.180;2022-09-09T07:49:32;8.70;;;3.63;;
70455;SDS011;57916;51.996;5.180;2022-09-09T07:52:01;8.00;;;4.00;;
70455;SDS011;57916;51.996;5.180;2022-09-09T07:54:30;10.57;;;4.20;;
70455;SDS011;57916;51.996;5.180;2022-09-09T07:56:59;8.38;;;4.35;;
70455;SDS011;57916;51.996;5.180;2022-09-09T07:59:29;10.15;;;3.75;;
70455;SDS011;57916;51.996;5.180;2022-09-09T08:01:57;9.40;;;4.03;;
70455;SDS011;57916;51.996;5.180;2022-09-09T08:04:27;12.05;;;3.90;;
70455;SDS011;57916;51.996;5.180;2022-09-09T08:06:59;10.33;;;4.10;;
70455;SDS011;57916;51.996;5.180;2022-09-09T08:09:29;6.78;;;4.00;;
70455;SDS011;57916;51.996;5.180;2022-09-09T08:12:21;10.57;;;4.10;;
70455;SDS011;57916;51.996;5.180;2022-09-09T08:14:48;10.00;;;4.35;;
70455;SDS011;57916;51.996;5.180;2022-09-09T08:17:15;6.40;;;3.90;;
70455;SDS011;57916;51.996;5.180;2022-09-09T08:19:43;9.95;;;4.43;;
70455;SDS011;57916;51.996;5.180;2022-09-09T08:22:15;4.63;;;3.53;;
70455;SDS011;57916;51.996;5.180;2022-09-09T08:24:43;8.00;;;3.95;;
70455;SDS011;57916;51.996;5.180;2022-09-09T08:27:11;9.93;;;3.80;;
70455;SDS011;57916;51.996;5.180;2022-09-09T08:29:38;10.77;;;4.00;;
70455;SDS011;57916;51.996;5.180;2022-09-09T08:32:05;7.80;;;3.70;;
70455;SDS011;57916;51.996;5.180;2022-09-09T08:34:34;8.55;;;3.80;;
70455;SDS011;57916;51.996;5.180;2022-09-09T08:37:10;9.43;;;4.35;;
70455;SDS011;57916;51.996;5.180;2022-09-09T08:39:39;9.10;;;3.95;;
70455;SDS011;57916;51.996;5.180;2022-09-09T08:50:22;8.82;;;3.55;;
70455;SDS011;57916;51.996;5.180;2022-09-09T08:55:54;7.70;;;3.70;;
70455;SDS011;57916;51.996;5.180;2022-09-09T08:58:33;10.55;;;4.15;;
70455;SDS011;57916;51.996;5.180;2022-09-09T09:03:48;10.38;;;3.53;;
70455;SDS011;57916;51.996;5.180;2022-09-09T09:11:35;11.68;;;3.95;;
70455;SDS011;57916;51.996;5.180;2022-09-09T09:14:12;9.07;;;3.75;;
70455;SDS011;57916;51.996;5.180;2022-09-09T09:19:27;11.47;;;3.70;;
70455;SDS011;57916;51.996;5.180;2022-09-09T09:27:14;17.67;;;4.60;;
70455;SDS011;57916;51.996;5.180;2022-09-09T09:29:49;10.65;;;4.57;;
70455;SDS011;57916;51.996;5.180;2022-09-09T09:32:38;10.07;;;5.10;;
70455;SDS011;57916;51.996;5.180;2022-09-09T09:35:10;11.83;;;4.97;;
70455;SDS011;57916;51.996;5.180;2022-09-09T09:37:41;10.15;;;4.82;;
70455;SDS011;57916;51.996;5.180;2022-09-09T09:40:30;11.77;;;5.32;;
70455;SDS011;57916;51.996;5.180;2022-09-09T09:42:59;12.35;;;5.20;;
70455;SDS011;57916;51.996;5.180;2022-09-09T09:48:04;13.40;;;4.90;;
70455;SDS011;57916;51.996;5.180;2022-09-09T09:50:35;9.73;;;4.32;;
70455;SDS011;57916;51.996;5.180;2022-09-09T09:53:43;15.93;;;4.30;;
70455;SDS011;57916;51.996;5.180;2022-09-09T09:56:13;7.53;;;4.13;;
70455;SDS011;57916;51.996;5.180;2022-09-09T10:01:20;12.68;;;4.07;;
70455;SDS011;57916;51.996;5.180;2022-09-09T10:04:15;12.77;;;4.13;;
70455;SDS011;57916;51.996;5.180;2022-09-09T10:06:52;8.13;;;4.70;;
70455;SDS011;57916;51.996;5.180;2022-09-09T10:09:26;10.23;;;5.18;;
70455;SDS011;57916;51.996;5.180;2022-09-09T10:24:07;9.75;;;4.78;;
70455;SDS011;57916;51.996;5.180;2022-09-09T10:29:10;6.85;;;4.88;;
70455;SDS011;57916;51.996;5.180;2022-09-09T10:40:38;6.68;;;4.40;;
70455;SDS011;57916;51.996;5.180;2022-09-09T10:48:42;6.95;;;3.90;;
70455;SDS011;57916;51.996;5.180;2022-09-09T11:00:04;5.03;;;3.40;;
70455;SDS011;57916;51.996;5.180;2022-09-09T11:02:33;9.07;;;4.10;;
70455;SDS011;57916;51.996;5.180;2022-09-09T11:08:14;6.45;;;3.60;;
70455;SDS011;57916;51.996;5.180;2022-09-09T11:10:53;10.27;;;3.53;;
70455;SDS011;57916;51.996;5.180;2022-09-09T11:16:16;7.05;;;3.83;;
70455;SDS011;57916;51.996;5.180;2022-09-09T11:18:53;9.20;;;3.75;;
70455;SDS011;57916;51.996;5.180;2022-09-09T11:21:44;5.90;;;3.63;;
70455;SDS011;57916;51.996;5.180;2022-09-09T11:24:16;8.70;;;3.92;;
70455;SDS011;57916;51.996;5.180;2022-09-09T11:27:09;10.02;;;3.92;;
70455;SDS011;57916;51.996;5.180;2022-09-09T11:38:50;6.75;;;5.90;;
70455;SDS011;57916;51.996;5.180;2022-09-09T11:41:19;11.00;;;5.75;;
70455;SDS011;57916;51.996;5.180;2022-09-09T11:43:48;10.18;;;6.15;;
70455;SDS011;57916;51.996;5.180;2022-09-09T11:46:19;10.98;;;6.00;;
70455;SDS011;57916;51.996;5.180;2022-09-09T11:48:59;7.30;;;5.45;;
70455;SDS011;57916;51.996;5.180;2022-09-09T11:51:28;8.57;;;4.97;;
70455;SDS011;57916;51.996;5.180;2022-09-09T11:53:57;9.48;;;5.70;;
70455;SDS011;57916;51.996;5.180;2022-09-09T11:56:43;9.30;;;5.55;;
70455;SDS011;57916;51.996;5.180;2022-09-09T11:59:49;8.27;;;5.43;;
70455;SDS011;57916;51.996;5.180;2022-09-09T12:04:50;6.70;;;6.10;;
70455;SDS011;57916;51.996;5.180;2022-09-09T12:10:04;8.60;;;6.00;;
70455;SDS011;57916;51.996;5.180;2022-09-09T12:12:46;9.00;;;5.13;;
70455;SDS011;57916;51.996;5.180;2022-09-09T12:15:18;7.75;;;5.10;;
70455;SDS011;57916;51.996;5.180;2022-09-09T12:17:52;13.95;;;6.30;;
70455;SDS011;57916;51.996;5.180;2022-09-09T12:20:38;7.53;;;5.38;;
70455;SDS011;57916;51.996;5.180;2022-09-09T12:34:40;8.52;;;5.90;;
70455;SDS011;57916;51.996;5.180;2022-09-09T12:37:30;7.20;;;5.25;;
70455;SDS011;57916;51.996;5.180;2022-09-09T12:40:04;7.53;;;4.82;;
70455;SDS011;57916;51.996;5.180;2022-09-09T12:42:51;8.55;;;5.20;;
70455;SDS011;57916;51.996;5.180;2022-09-09T12:45:20;7.05;;;4.70;;
70455;SDS011;57916;51.996;5.180;2022-09-09T12:47:59;6.93;;;4.88;;
70455;SDS011;57916;51.996;5.180;2022-09-09T12:50:33;8.70;;;4.93;;
70455;SDS011;57916;51.996;5.180;2022-09-09T12:53:06;6.65;;;4.13;;
70455;SDS011;57916;51.996;5.180;2022-09-09T12:55:37;5.80;;;4.68;;
70455;SDS011;57916;51.996;5.180;2022-09-09T12:58:05;5.45;;;4.60;;
70455;SDS011;57916;51.996;5.180;2022-09-09T13:00:33;5.43;;;4.50;;
70455;SDS011;57916;51.996;5.180;2022-09-09T13:03:02;8.70;;;4.80;;
70455;SDS011;57916;51.996;5.180;2022-09-09T13:05:40;5.93;;;4.70;;
70455;SDS011;57916;51.996;5.180;2022-09-09T13:08:11;7.90;;;5.32;;
70455;SDS011;57916;51.996;5.180;2022-09-09T13:10:47;9.60;;;5.83;;
70455;SDS011;57916;51.996;5.180;2022-09-09T13:13:34;9.02;;;5.65;;
70455;SDS011;57916;51.996;5.180;2022-09-09T13:16:07;8.55;;;5.95;;
70455;SDS011;57916;51.996;5.180;2022-09-09T13:19:09;9.40;;;5.00;;
70455;SDS011;57916;51.996;5.180;2022-09-09T13:21:41;9.43;;;5.10;;
70455;SDS011;57916;51.996;5.180;2022-09-09T13:27:05;6.72;;;4.85;;
70455;SDS011;57916;51.996;5.180;2022-09-09T13:29:53;8.02;;;5.20;;
70455;SDS011;57916;51.996;5.180;2022-09-09T13:32:24;6.15;;;4.90;;
70455;SDS011;57916;51.996;5.180;2022-09-09T13:34:59;8.55;;;4.45;;
70455;SDS011;57916;51.996;5.180;2022-09-09T13:40:02;6.15;;;4.13;;
70455;SDS011;57916;51.996;5.180;2022-09-09T13:42:33;8.52;;;4.25;;
70455;SDS011;57916;51.996;5.180;2022-09-09T13:45:05;5.30;;;4.10;;
70455;SDS011;57916;51.996;5.180;2022-09-09T13:47:42;4.38;;;3.95;;
70455;SDS011;57916;51.996;5.180;2022-09-09T13:52:55;7.25;;;4.55;;
70455;SDS011;57916;51.996;5.180;2022-09-09T13:55:27;6.80;;;4.70;;
70455;SDS011;57916;51.996;5.180;2022-09-09T13:57:58;6.78;;;4.57;;
70455;SDS011;57916;51.996;5.180;2022-09-09T14:00:30;5.38;;;4.85;;
70455;SDS011;57916;51.996;5.180;2022-09-09T14:02:58;7.33;;;4.33;;
70455;SDS011;57916;51.996;5.180;2022-09-09T14:05:31;11.73;;;4.90;;
70455;SDS011;57916;51.996;5.180;2022-09-09T14:07:59;7.33;;;4.67;;
70455;SDS011;57916;51.996;5.180;2022-09-09T14:10:27;9.18;;;5.10;;
70455;SDS011;57916;51.996;5.180;2022-09-09T14:12:54;7.00;;;4.90;;
70455;SDS011;57916;51.996;5.180;2022-09-09T14:15:22;6.80;;;4.70;;
70455;SDS011;57916;51.996;5.180;2022-09-09T14:17:49;7.00;;;5.43;;
70455;SDS011;57916;51.996;5.180;2022-09-09T14:20:18;5.70;;;5.20;;
70455;SDS011;57916;51.996;5.180;2022-09-09T14:22:45;6.95;;;5.10;;
70455;SDS011;57916;51.996;5.180;2022-09-09T14:25:12;9.88;;;4.97;;
70455;SDS011;57916;51.996;5.180;2022-09-09T14:27:40;8.98;;;5.40;;
70455;SDS011;57916;51.996;5.180;2022-09-09T14:30:08;5.30;;;4.80;;
70455;SDS011;57916;51.996;5.180;2022-09-09T14:32:35;4.65;;;3.30;;
70455;SDS011;57916;51.996;5.180;2022-09-09T14:35:02;4.88;;;3.47;;
70455;SDS011;57916;51.996;5.180;2022-09-09T14:37:30;6.53;;;3.00;;
70455;SDS011;57916;51.996;5.180;2022-09-09T14:39:57;3.10;;;2.90;;
70455;SDS011;57916;51.996;5.180;2022-09-09T14:42:25;2.83;;;2.63;;
70455;SDS011;57916;51.996;5.180;2022-09-09T14:44:53;2.67;;;2.47;;
70455;SDS011;57916;51.996;5.180;2022-09-09T14:47:20;2.70;;;2.30;;
70455;SDS011;57916;51.996;5.180;2022-09-09T14:49:46;3.10;;;2.50;;
70455;SDS011;57916;51.996;5.180;2022-09-09T14:52:15;2.95;;;2.75;;
70455;SDS011;57916;51.996;5.180;2022-09-09T14:54:43;2.70;;;2.50;;
70455;SDS011;57916;51.996;5.180;2022-09-09T14:57:10;2.58;;;2.38;;
70455;SDS011;57916;51.996;5.180;2022-09-09T14:59:36;2.80;;;2.60;;
70455;SDS011;57916;51.996;5.180;2022-09-09T15:02:07;4.90;;;2.80;;
70455;SDS011;57916;51.996;5.180;2022-09-09T15:04:35;3.63;;;2.80;;
70455;SDS011;57916;51.996;5.180;2022-09-09T15:07:02;2.90;;;2.70;;
70455;SDS011;57916;51.996;5.180;2022-09-09T15:09:29;5.03;;;2.95;;
70455;SDS011;57916;51.996;5.180;2022-09-09T15:11:56;3.92;;;3.58;;
70455;SDS011;57916;51.996;5.180;2022-09-09T15:14:23;5.57;;;3.20;;
70455;SDS011;57916;51.996;5.180;2022-09-09T15:16:51;4.47;;;3.20;;
70455;SDS011;57916;51.996;5.180;2022-09-09T15:19:18;3.40;;;3.10;;
70455;SDS011;57916;51.996;5.180;2022-09-09T15:21:45;3.60;;;3.30;;
70455;SDS011;57916;51.996;5.180;2022-09-09T15:24:12;3.50;;;3.22;;
70455;SDS011;57916;51.996;5.180;2022-09-09T15:26:39;4.50;;;3.13;;
70455;SDS011;57916;51.996;5.180;2022-09-09T15:29:07;3.40;;;3.10;;
70455;SDS011;57916;51.996;5.180;2022-09-09T15:31:34;3.80;;;2.80;;
70455;SDS011;57916;51.996;5.180;2022-09-09T15:34:03;3.05;;;2.58;;
70455;SDS011;57916;51.996;5.180;2022-09-09T15:39:01;3.58;;;2.70;;
70455;SDS011;57916;51.996;5.180;2022-09-09T15:41:30;3.47;;;3.10;;
70455;SDS011;57916;51.996;5.180;2022-09-09T15:44:00;3.23;;;2.60;;
70455;SDS011;57916;51.996;5.180;2022-09-09T15:46:32;3.40;;;2.50;;
70455;SDS011;57916;51.996;5.180;2022-09-09T15:49:08;5.28;;;2.75;;
70455;SDS011;57916;51.996;5.180;2022-09-09T15:51:38;5.28;;;2.95;;
70455;SDS011;57916;51.996;5.180;2022-09-09T15:54:10;3.90;;;2.90;;
70455;SDS011;57916;51.996;5.180;2022-09-09T15:56:38;3.40;;;3.10;;
70455;SDS011;57916;51.996;5.180;2022-09-09T15:59:06;3.83;;;3.30;;
70455;SDS011;57916;51.996;5.180;2022-09-09T16:01:33;5.15;;;3.22;;
70455;SDS011;57916;51.996;5.180;2022-09-09T16:04:01;4.90;;;3.45;;
70455;SDS011;57916;51.996;5.180;2022-09-09T16:06:30;5.03;;;3.13;;
70455;SDS011;57916;51.996;5.180;2022-09-09T16:08:57;4.72;;;3.20;;
70455;SDS011;57916;51.996;5.180;2022-09-09T16:11:28;3.37;;;2.90;;
70455;SDS011;57916;51.996;5.180;2022-09-09T16:13:59;3.50;;;3.15;;
70455;SDS011;57916;51.996;5.180;2022-09-09T16:16:27;3.70;;;3.40;;
70455;SDS011;57916;51.996;5.180;2022-09-09T16:18:56;6.65;;;3.80;;
70455;SDS011;57916;51.996;5.180;2022-09-09T16:21:29;4.75;;;3.45;;
70455;SDS011;57916;51.996;5.180;2022-09-09T16:23:59;4.93;;;3.90;;
70455;SDS011;57916;51.996;5.180;2022-09-09T16:26:28;4.70;;;3.45;;
70455;SDS011;57916;51.996;5.180;2022-09-09T16:28:57;3.73;;;3.40;;
70455;SDS011;57916;51.996;5.180;2022-09-09T16:31:25;5.82;;;3.72;;
70455;SDS011;57916;51.996;5.180;2022-09-09T16:33:54;4.73;;;3.60;;
70455;SDS011;57916;51.996;5.180;2022-09-09T16:38:57;4.47;;;4.00;;
70455;SDS011;57916;51.996;5.180;2022-09-09T16:41:26;6.80;;;4.40;;
70455;SDS011;57916;51.996;5.180;2022-09-09T16:43:55;6.78;;;4.00;;
70455;SDS011;57916;51.996;5.180;2022-09-09T16:46:24;4.65;;;4.18;;
70455;SDS011;57916;51.996;5.180;2022-09-09T16:48:52;5.03;;;4.70;;
70455;SDS011;57916;51.996;5.180;2022-09-09T16:51:22;8.10;;;4.07;;
70455;SDS011;57916;51.996;5.180;2022-09-09T16:53:54;8.82;;;4.18;;
70455;SDS011;57916;51.996;5.180;2022-09-09T16:56:22;8.10;;;4.10;;
70455;SDS011;57916;51.996;5.180;2022-09-09T16:58:52;5.18;;;3.80;;
70455;SDS011;57916;51.996;5.180;2022-09-09T17:01:24;7.00;;;4.20;;
70455;SDS011;57916;51.996;5.180;2022-09-09T17:03:56;4.10;;;3.80;;
70455;SDS011;57916;51.996;5.180;2022-09-09T17:06:27;4.75;;;3.50;;
70455;SDS011;57916;51.996;5.180;2022-09-09T17:08:57;4.30;;;3.40;;
70455;SDS011;57916;51.996;5.180;2022-09-09T17:11:27;4.38;;;3.65;;
70455;SDS011;57916;51.996;5.180;2022-09-09T17:13:55;7.78;;;3.58;;
70455;SDS011;57916;51.996;5.180;2022-09-09T17:16:25;5.45;;;3.50;;
70455;SDS011;57916;51.996;5.180;2022-09-09T17:18:54;3.85;;;3.20;;
70455;SDS011;57916;51.996;5.180;2022-09-09T17:21:23;4.68;;;3.47;;
70455;SDS011;57916;51.996;5.180;2022-09-09T17:23:52;6.13;;;3.67;;
70455;SDS011;57916;51.996;5.180;2022-09-09T17:26:22;5.60;;;3.40;;
70455;SDS011;57916;51.996;5.180;2022-09-09T17:28:53;5.25;;;3.30;;
70455;SDS011;57916;51.996;5.180;2022-09-09T17:31:25;3.95;;;3.30;;
70455;SDS011;57916;51.996;5.180;2022-09-09T17:33:52;4.90;;;3.22;;
70455;SDS011;57916;51.996;5.180;2022-09-09T17:36:21;6.85;;;3.97;;
70455;SDS011;57916;51.996;5.180;2022-09-09T17:38:59;5.80;;;3.70;;
70455;SDS011;57916;51.996;5.180;2022-09-09T17:41:28;5.35;;;3.65;;
70455;SDS011;57916;51.996;5.180;2022-09-09T17:43:57;7.55;;;3.70;;
70455;SDS011;57916;51.996;5.180;2022-09-09T17:46:25;3.63;;;3.33;;
70455;SDS011;57916;51.996;5.180;2022-09-09T17:48:58;4.57;;;4.07;;
70455;SDS011;57916;51.996;5.180;2022-09-09T17:51:27;6.47;;;4.05;;
70455;SDS011;57916;51.996;5.180;2022-09-09T17:54:00;7.88;;;4.65;;
70455;SDS011;57916;51.996;5.180;2022-09-09T17:56:30;6.70;;;4.87;;
70455;SDS011;57916;51.996;5.180;2022-09-09T17:58:58;9.47;;;5.10;;
70455;SDS011;57916;51.996;5.180;2022-09-09T18:01:28;8.68;;;4.85;;
70455;SDS011;57916;51.996;5.180;2022-09-09T18:04:00;4.97;;;4.47;;